createdAt,value
2022-11-01T00:00:27.676Z,19.41
2022-11-01T00:02:57.418Z,19.41
2022-11-01T00:05:27.303Z,19.45
2022-11-01T00:07:59.941Z,19.43
2022-11-01T00:10:29.830Z,19.42
2022-11-01T00:12:59.861Z,19.40
2022-11-01T00:15:29.796Z,19.41
2022-11-01T00:17:59.511Z,19.39
2022-11-01T00:20:29.261Z,19.40
2022-11-01T00:23:02.081Z,19.37
2022-11-01T00:25:32.033Z,19.37
2022-11-01T00:28:02.143Z,19.36
2022-11-01T00:30:32.140Z,19.38
2022-11-01T00:33:01.875Z,19.39
2022-11-01T00:35:31.872Z,19.36
2022-11-01T00:38:04.712Z,19.31
2022-11-01T00:40:35.046Z,19.28
2022-11-01T00:43:04.760Z,19.25
2022-11-01T00:45:34.493Z,19.20
2022-11-01T00:48:04.475Z,19.14
2022-11-01T00:50:34.356Z,19.10
2022-11-01T00:53:06.737Z,19.11
2022-11-01T00:55:36.654Z,19.12
2022-11-01T00:58:06.720Z,19.09
2022-11-01T01:00:36.494Z,19.08
2022-11-01T01:03:07.152Z,19.10
2022-11-01T01:05:37.481Z,19.12
2022-11-01T01:08:10.018Z,19.19
2022-11-01T01:10:39.898Z,19.24
2022-11-01T01:13:10.091Z,19.27
2022-11-01T01:15:41.081Z,19.28
2022-11-01T01:18:10.911Z,19.29
2022-11-01T01:20:40.911Z,19.27
2022-11-01T01:23:13.332Z,19.26
2022-11-01T01:25:43.946Z,19.30
2022-11-01T01:28:13.703Z,19.30
2022-11-01T01:30:44.232Z,19.29
2022-11-01T01:33:15.241Z,19.29
2022-11-01T01:35:45.018Z,19.24
2022-11-01T01:38:17.423Z,19.21
2022-11-01T01:40:47.350Z,19.22
2022-11-01T01:43:14.546Z,19.24
2022-11-01T01:45:44.627Z,19.23
2022-11-01T01:48:19.961Z,19.20
2022-11-01T01:50:57.323Z,19.19
2022-11-01T01:53:32.727Z,19.21
2022-11-01T01:56:05.763Z,19.22
2022-11-01T01:58:39.498Z,19.18
2022-11-01T02:01:09.547Z,19.13
2022-11-01T02:03:41.176Z,19.08
2022-11-01T02:06:13.819Z,19.01
2022-11-01T02:08:49.332Z,19.00
2022-11-01T02:11:20.427Z,18.99
2022-11-01T02:13:50.346Z,19.00
2022-11-01T02:16:46.086Z,19.00
2022-11-01T02:19:44.297Z,19.01
2022-11-01T02:22:20.028Z,19.01
2022-11-01T02:25:26.794Z,19.00
2022-11-01T02:28:17.052Z,19.01
2022-11-01T02:30:55.678Z,19.01
2022-11-01T02:33:32.784Z,19.01
2022-11-01T02:36:07.810Z,19.01
2022-11-01T02:38:43.477Z,19.00
2022-11-01T02:41:16.112Z,18.97
2022-11-01T02:43:53.123Z,18.94
2022-11-01T02:46:37.623Z,18.94
2022-11-01T02:49:12.850Z,18.95
2022-11-01T02:51:44.890Z,18.93
2022-11-01T02:54:24.929Z,18.91
2022-11-01T02:56:55.199Z,18.91
2022-11-01T02:59:28.089Z,18.87
2022-11-01T03:02:04.309Z,18.85
2022-11-01T03:04:37.971Z,18.84
2022-11-01T03:07:11.429Z,18.82
2022-11-01T03:09:43.106Z,18.83
2022-11-01T03:12:19.304Z,18.80
2022-11-01T03:15:00.641Z,18.80
2022-11-01T03:17:35.968Z,18.82
2022-11-01T03:20:16.258Z,18.79
2022-11-01T03:22:49.615Z,18.77
2022-11-01T03:25:36.160Z,18.73
2022-11-01T03:28:12.665Z,18.72
2022-11-01T03:30:45.786Z,18.70
2022-11-01T03:33:18.243Z,18.69
2022-11-01T03:35:54.594Z,18.69
2022-11-01T03:38:29.581Z,18.68
2022-11-01T03:41:03.940Z,18.67
2022-11-01T03:43:37.020Z,18.66
2022-11-01T03:46:07.364Z,18.65
2022-11-01T03:48:37.405Z,18.64
2022-11-01T03:51:10.210Z,18.62
2022-11-01T03:53:40.150Z,18.61
2022-11-01T03:56:10.539Z,18.61
2022-11-01T03:58:46.685Z,18.61
2022-11-01T04:01:18.809Z,18.56
2022-11-01T04:03:48.628Z,18.56
2022-11-01T04:06:21.058Z,18.51
2022-11-01T04:08:50.909Z,18.46
2022-11-01T04:11:20.716Z,18.42
2022-11-01T04:13:50.636Z,18.40
2022-11-01T04:16:32.927Z,18.35
2022-11-01T04:19:15.115Z,18.35
2022-11-01T04:21:47.760Z,18.32
2022-11-01T04:24:21.263Z,18.30
2022-11-01T04:26:51.330Z,18.31
2022-11-01T04:29:21.059Z,18.30
2022-11-01T04:31:50.835Z,18.29
2022-11-01T04:34:41.109Z,18.28
2022-11-01T04:37:14.499Z,18.28
2022-11-01T04:39:44.423Z,18.28
2022-11-01T04:42:14.249Z,18.27
2022-11-01T04:44:46.897Z,18.27
2022-11-01T04:47:16.665Z,18.26
2022-11-01T04:49:46.405Z,18.26
2022-11-01T04:52:18.900Z,18.25
2022-11-01T04:54:48.682Z,18.24
2022-11-01T04:57:25.512Z,18.20
2022-11-01T04:59:56.288Z,18.18
2022-11-01T05:02:26.970Z,18.14
2022-11-01T05:04:56.723Z,18.13
2022-11-01T05:07:29.097Z,18.13
2022-11-01T05:09:58.832Z,18.15
2022-11-01T05:12:28.647Z,18.13
2022-11-01T05:14:58.445Z,18.06
2022-11-01T05:17:28.384Z,18.06
2022-11-01T05:19:58.128Z,18.06
2022-11-01T05:22:30.515Z,18.07
2022-11-01T05:25:00.306Z,18.09
2022-11-01T05:27:30.030Z,18.07
2022-11-01T05:29:59.830Z,18.05
2022-11-01T05:32:29.607Z,18.03
2022-11-01T05:34:59.493Z,17.97
2022-11-01T05:37:31.937Z,17.97
2022-11-01T05:40:01.881Z,17.95
2022-11-01T05:42:31.803Z,17.88
2022-11-01T05:45:01.573Z,17.90
2022-11-01T05:47:31.376Z,17.87
2022-11-01T05:50:01.227Z,17.86
2022-11-01T05:52:33.599Z,17.67
2022-11-01T05:55:03.419Z,17.69
2022-11-01T05:57:33.704Z,17.69
2022-11-01T06:00:03.740Z,17.71
2022-11-01T06:02:42.117Z,17.62
2022-11-01T06:05:12.400Z,17.59
2022-11-01T06:07:44.774Z,17.60
2022-11-01T06:10:14.496Z,17.54
2022-11-01T06:12:44.266Z,17.50
2022-11-01T06:15:14.523Z,17.39
2022-11-01T06:17:44.301Z,17.34
2022-11-01T06:20:15.004Z,17.41
2022-11-01T06:22:47.322Z,17.45
2022-11-01T06:25:17.342Z,17.19
2022-11-01T06:27:47.095Z,17.27
2022-11-01T06:30:17.120Z,17.35
2022-11-01T06:32:46.931Z,17.37
2022-11-01T06:35:16.685Z,17.36
2022-11-01T06:37:49.124Z,17.39
2022-11-01T06:40:18.979Z,17.38
2022-11-01T06:42:48.800Z,17.40
2022-11-01T06:45:18.789Z,17.51
2022-11-01T06:47:51.583Z,17.67
2022-11-01T06:50:21.366Z,17.74
2022-11-01T06:52:54.327Z,17.59
2022-11-01T06:55:24.158Z,17.56
2022-11-01T06:57:57.724Z,17.68
2022-11-01T07:00:29.000Z,17.63
2022-11-01T07:03:04.388Z,17.47
2022-11-01T07:05:37.467Z,17.65
2022-11-01T07:08:12.938Z,17.71
2022-11-01T07:10:45.493Z,17.89
2022-11-01T07:13:16.569Z,17.84
2022-11-01T07:15:46.311Z,17.82
2022-11-01T07:18:16.094Z,17.96
2022-11-01T07:23:20.240Z,17.86
2022-11-01T07:25:54.304Z,17.90
2022-11-01T07:28:24.825Z,17.85
2022-11-01T07:30:55.797Z,17.90
2022-11-01T07:33:25.735Z,17.91
2022-11-01T07:35:57.710Z,17.92
2022-11-01T07:38:30.299Z,17.97
2022-11-01T07:41:00.180Z,18.00
2022-11-01T07:43:30.020Z,17.73
2022-11-01T07:46:04.227Z,17.80
2022-11-01T07:48:34.087Z,17.87
2022-11-01T07:51:05.748Z,17.81
2022-11-01T07:53:38.564Z,17.89
2022-11-01T07:56:15.144Z,17.97
2022-11-01T07:58:47.378Z,17.75
2022-11-01T08:01:17.402Z,17.77
2022-11-01T08:03:49.324Z,17.78
2022-11-01T08:06:19.314Z,17.78
2022-11-01T08:08:52.416Z,17.83
2022-11-01T08:11:22.337Z,17.73
2022-11-01T08:13:52.353Z,17.99
2022-11-01T08:16:22.133Z,18.10
2022-11-01T08:18:56.455Z,18.09
2022-11-01T08:21:26.255Z,18.05
2022-11-01T08:23:58.739Z,18.17
2022-11-01T08:26:29.200Z,18.29
2022-11-01T08:29:02.251Z,18.43
2022-11-01T08:31:34.872Z,18.40
2022-11-01T08:34:06.668Z,18.52
2022-11-01T08:36:51.348Z,18.32
2022-11-01T08:39:23.947Z,18.42
2022-11-01T08:41:53.857Z,18.57
2022-11-01T08:44:23.627Z,18.65
2022-11-01T08:46:59.209Z,18.66
2022-11-01T08:49:29.237Z,18.63
2022-11-01T08:51:59.134Z,18.82
2022-11-01T08:54:31.596Z,18.67
2022-11-01T08:57:01.356Z,18.77
2022-11-01T08:59:31.488Z,18.92
2022-11-01T09:02:01.492Z,19.02
2022-11-01T09:04:31.456Z,19.21
2022-11-01T09:07:01.333Z,19.17
2022-11-01T09:09:33.806Z,19.14
2022-11-01T09:12:03.890Z,18.93
2022-11-01T09:14:33.986Z,19.05
2022-11-01T09:17:03.784Z,19.51
2022-11-01T09:19:33.623Z,20.06
2022-11-01T09:22:03.455Z,20.58
2022-11-01T09:24:35.927Z,21.37
2022-11-01T09:27:05.876Z,21.92
2022-11-01T09:29:35.626Z,21.86
2022-11-01T09:32:06.685Z,21.36
2022-11-01T09:34:36.485Z,21.17
2022-11-01T09:37:06.987Z,21.63
2022-11-01T09:39:39.386Z,21.90
2022-11-01T09:42:14.802Z,21.69
2022-11-01T09:44:48.398Z,21.29
2022-11-01T09:47:22.533Z,21.03
2022-11-01T09:49:57.122Z,20.68
2022-11-01T09:52:28.319Z,20.51
2022-11-01T09:55:04.001Z,20.22
2022-11-01T09:57:38.161Z,20.06
2022-11-01T10:00:16.215Z,20.10
2022-11-01T10:03:18.362Z,20.20
2022-11-01T10:05:53.114Z,19.99
2022-11-01T10:08:37.039Z,19.91
2022-11-01T10:11:35.607Z,19.76
2022-11-01T10:14:35.682Z,19.68
2022-11-01T10:17:17.473Z,19.71
2022-11-01T10:19:50.801Z,19.72
2022-11-01T10:22:31.950Z,19.78
2022-11-01T10:25:19.592Z,19.81
2022-11-01T10:28:07.748Z,19.87
2022-11-01T10:30:43.388Z,19.89
2022-11-01T10:33:29.550Z,19.77
2022-11-01T10:36:03.711Z,19.88
2022-11-01T10:41:41.252Z,19.86
2022-11-01T10:44:27.407Z,19.82
2022-11-01T10:47:00.614Z,19.91
2022-11-01T10:50:04.759Z,19.89
2022-11-01T10:52:52.575Z,20.04
2022-11-01T10:55:29.186Z,20.16
2022-11-01T10:58:20.945Z,20.14
2022-11-01T11:00:54.619Z,20.13
2022-11-01T11:03:28.875Z,20.14
2022-11-01T11:06:02.156Z,20.20
2022-11-01T11:08:32.091Z,20.26
2022-11-01T11:11:07.857Z,20.42
2022-11-01T11:13:38.344Z,20.64
2022-11-01T11:16:19.578Z,20.97
2022-11-01T11:19:12.341Z,21.31
2022-11-01T11:21:50.120Z,22.79
2022-11-01T11:24:27.185Z,24.99
2022-11-01T11:27:06.394Z,26.70
2022-11-01T11:29:49.200Z,28.19
2022-11-01T11:32:27.644Z,27.63
2022-11-01T11:35:00.802Z,26.25
2022-11-01T11:37:36.132Z,25.21
2022-11-01T11:40:20.071Z,24.54
2022-11-01T11:42:56.265Z,23.93
2022-11-01T11:45:35.066Z,23.67
2022-11-01T11:48:24.733Z,23.29
2022-11-01T11:51:09.795Z,22.89
2022-11-01T11:54:22.913Z,22.48
2022-11-01T11:56:54.704Z,22.18
2022-11-01T11:59:28.176Z,21.76
2022-11-01T12:02:03.635Z,21.56
2022-11-01T12:04:43.363Z,21.42
2022-11-01T12:07:27.724Z,21.27
2022-11-01T12:09:58.622Z,21.15
2022-11-01T12:12:30.924Z,20.91
2022-11-01T12:15:03.376Z,20.86
2022-11-01T12:17:36.676Z,20.83
2022-11-01T12:20:18.290Z,20.72
2022-11-01T12:22:52.200Z,20.63
2022-11-01T12:25:24.659Z,20.60
2022-11-01T12:28:01.940Z,20.57
2022-11-01T12:30:37.591Z,20.58
2022-11-01T12:33:18.711Z,20.58
2022-11-01T12:35:51.666Z,20.57
2022-11-01T12:38:54.001Z,20.63
2022-11-01T12:41:32.401Z,20.63
2022-11-01T12:44:16.143Z,20.66
2022-11-01T12:46:51.686Z,20.66
2022-11-01T12:49:33.055Z,20.65
2022-11-01T12:52:13.430Z,20.67
2022-11-01T12:54:47.355Z,20.65
2022-11-01T12:57:20.953Z,20.65
2022-11-01T12:59:50.874Z,20.68
2022-11-01T13:02:40.269Z,20.55
2022-11-01T13:05:16.040Z,20.56
2022-11-01T13:08:01.659Z,20.45
2022-11-01T13:10:36.011Z,20.47
2022-11-01T13:13:17.034Z,20.38
2022-11-01T13:15:58.738Z,20.34
2022-11-01T13:18:41.887Z,20.36
2022-11-01T13:21:19.000Z,20.42
2022-11-01T13:23:57.234Z,20.41
2022-11-01T13:26:32.660Z,20.44
2022-11-01T13:32:07.896Z,20.60
2022-11-01T13:34:52.077Z,20.63
2022-11-01T13:37:34.573Z,20.75
2022-11-01T13:40:21.215Z,20.85
2022-11-01T13:42:57.738Z,21.06
2022-11-01T13:46:01.741Z,21.35
2022-11-01T13:48:44.784Z,21.36
2022-11-01T13:51:32.041Z,21.46
2022-11-01T13:54:09.299Z,21.34
2022-11-01T13:56:48.201Z,21.22
2022-11-01T13:59:32.941Z,21.10
2022-11-01T14:02:50.256Z,21.01
2022-11-01T14:05:20.126Z,20.89
2022-11-01T14:08:15.724Z,20.86
2022-11-01T14:10:51.296Z,20.81
2022-11-01T14:13:34.181Z,20.69
2022-11-01T14:16:23.822Z,20.61
2022-11-01T14:19:22.424Z,20.55
2022-11-01T14:21:56.228Z,20.50
2022-11-01T14:24:34.584Z,20.55
2022-11-01T14:27:24.454Z,20.55
2022-11-01T14:29:59.917Z,20.60
2022-11-01T14:32:32.634Z,20.57
2022-11-01T14:35:08.662Z,20.45
2022-11-01T14:37:46.714Z,20.46
2022-11-01T14:40:36.357Z,20.40
2022-11-01T14:43:14.256Z,20.45
2022-11-01T14:45:49.896Z,20.39
2022-11-01T14:48:24.360Z,20.41
2022-11-01T14:51:01.861Z,20.42
2022-11-01T14:53:35.106Z,20.41
2022-11-01T14:56:15.531Z,20.42
2022-11-01T14:58:46.076Z,20.45
2022-11-01T15:01:25.141Z,20.43
2022-11-01T15:04:00.088Z,20.40
2022-11-01T15:06:31.731Z,20.41
2022-11-01T15:09:02.943Z,20.43
2022-11-01T15:11:36.076Z,20.45
2022-11-01T15:14:10.604Z,20.42
2022-11-01T15:16:45.906Z,20.39
2022-11-01T15:19:19.404Z,20.36
2022-11-01T15:21:49.276Z,20.32
2022-11-01T15:24:24.269Z,20.29
2022-11-01T15:26:54.595Z,20.29
2022-11-01T15:29:27.237Z,20.27
2022-11-01T15:32:02.771Z,20.19
2022-11-01T15:34:34.342Z,20.20
2022-11-01T15:37:14.894Z,20.16
2022-11-01T15:39:44.682Z,20.14
2022-11-01T15:42:17.790Z,20.08
2022-11-01T15:44:47.883Z,20.06
2022-11-01T15:47:25.188Z,20.06
2022-11-01T15:50:02.443Z,20.03
2022-11-01T15:52:34.932Z,19.99
2022-11-01T15:55:10.718Z,19.96
2022-11-01T15:57:48.522Z,19.88
2022-11-01T16:00:22.466Z,19.88
2022-11-01T16:03:01.989Z,19.86
2022-11-01T16:05:35.055Z,19.88
2022-11-01T16:08:08.337Z,19.86
2022-11-01T16:10:38.738Z,19.88
2022-11-01T16:13:08.906Z,19.90
2022-11-01T16:15:39.689Z,19.91
2022-11-01T16:18:20.099Z,19.87
2022-11-01T16:20:52.683Z,19.81
2022-11-01T16:23:29.683Z,19.82
2022-11-01T16:26:04.724Z,19.82
2022-11-01T16:28:40.947Z,19.82
2022-11-01T16:31:25.922Z,19.81
2022-11-01T16:34:02.516Z,19.80
2022-11-01T16:36:44.350Z,19.77
2022-11-01T16:39:29.812Z,19.74
2022-11-01T16:42:00.584Z,19.72
2022-11-01T16:44:30.762Z,19.68
2022-11-01T16:47:00.853Z,19.67
2022-11-01T16:49:36.868Z,19.66
2022-11-01T16:52:12.415Z,19.60
2022-11-01T16:54:43.124Z,19.55
2022-11-01T16:57:27.563Z,19.55
2022-11-01T17:00:04.466Z,19.54
2022-11-01T17:02:35.007Z,19.49
2022-11-01T17:05:18.828Z,19.43
2022-11-01T17:07:48.723Z,19.47
2022-11-01T17:10:19.761Z,19.46
2022-11-01T17:12:50.062Z,19.45
2022-11-01T17:22:25.347Z,19.44
2022-11-01T17:24:55.439Z,19.40
2022-11-01T17:27:25.413Z,19.38
2022-11-01T17:29:55.291Z,19.37
2022-11-01T17:32:26.690Z,19.38
2022-11-01T17:34:56.479Z,19.38
2022-11-01T17:37:32.301Z,19.36
2022-11-01T17:40:03.539Z,19.39
2022-11-01T17:42:33.407Z,19.39
2022-11-01T17:45:03.263Z,19.41
2022-11-01T17:47:33.081Z,19.42
2022-11-01T17:50:02.852Z,19.42
2022-11-01T17:52:35.331Z,19.42
2022-11-01T17:55:05.362Z,19.41
2022-11-01T17:57:35.249Z,19.41
2022-11-01T18:00:05.297Z,19.39
2022-11-01T18:02:42.302Z,19.37
2022-11-01T18:05:13.880Z,19.35
2022-11-01T18:07:47.817Z,19.33
2022-11-01T18:10:20.490Z,19.29
2022-11-01T18:13:09.387Z,19.24
2022-11-01T18:15:45.663Z,19.22
2022-11-01T18:18:28.968Z,19.16
2022-11-01T18:21:11.685Z,19.17
2022-11-01T18:23:46.974Z,19.18
2022-11-01T18:26:23.016Z,19.19
2022-11-01T18:28:53.691Z,19.16
2022-11-01T18:31:39.971Z,19.13
2022-11-01T18:34:16.762Z,19.13
2022-11-01T18:36:53.485Z,19.10
2022-11-01T18:39:34.718Z,19.07
2022-11-01T18:42:04.743Z,19.08
2022-11-01T18:44:34.610Z,19.05
2022-11-01T18:47:12.437Z,19.00
2022-11-01T18:49:42.305Z,18.99
2022-11-01T18:52:19.157Z,18.96
2022-11-01T18:54:56.895Z,18.94
2022-11-01T18:57:27.278Z,18.96
2022-11-01T18:59:59.495Z,18.93
2022-11-01T19:02:31.242Z,18.92
2022-11-01T19:05:16.045Z,18.88
2022-11-01T19:08:09.777Z,18.89
2022-11-01T19:10:39.587Z,18.85
2022-11-01T19:13:15.323Z,18.82
2022-11-01T19:15:47.103Z,18.81
2022-11-01T19:18:22.910Z,18.74
2022-11-01T19:20:55.729Z,18.60
2022-11-01T19:23:34.402Z,18.57
2022-11-01T19:26:10.572Z,18.51
2022-11-01T19:28:41.867Z,18.50
2022-11-01T19:31:21.065Z,18.43
2022-11-01T19:33:55.641Z,18.41
2022-11-01T19:36:27.860Z,18.36
2022-11-01T19:38:57.843Z,18.34
2022-11-01T19:41:36.138Z,18.31
2022-11-01T19:44:14.838Z,18.30
2022-11-01T19:46:44.652Z,18.33
2022-11-01T19:49:29.369Z,18.33
2022-11-01T19:52:23.236Z,18.36
2022-11-01T19:54:56.042Z,18.36
2022-11-01T19:57:33.093Z,18.34
2022-11-01T20:00:19.100Z,18.32
2022-11-01T20:02:50.060Z,18.35
2022-11-01T20:05:29.505Z,18.33
2022-11-01T20:08:09.888Z,18.31
2022-11-01T20:10:39.852Z,18.31
2022-11-01T20:13:12.429Z,18.27
2022-11-01T20:15:43.009Z,18.25
2022-11-01T20:18:14.034Z,18.24
2022-11-01T20:20:45.946Z,18.24
2022-11-01T20:23:31.341Z,18.23
2022-11-01T20:26:01.106Z,18.21
2022-11-01T20:28:33.949Z,18.18
2022-11-01T20:31:05.316Z,18.18
2022-11-01T20:33:35.248Z,18.15
2022-11-01T20:36:10.715Z,18.13
2022-11-01T20:38:41.064Z,18.10
2022-11-01T20:41:11.120Z,18.07
2022-11-01T20:43:43.499Z,18.03
2022-11-01T20:46:13.405Z,18.01
2022-11-01T20:48:45.285Z,18.01
2022-11-01T20:51:15.669Z,17.99
2022-11-01T20:53:45.662Z,17.99
2022-11-01T20:56:15.486Z,17.98
2022-11-01T20:58:47.919Z,17.96
2022-11-01T21:01:18.561Z,17.94
2022-11-01T21:03:49.103Z,17.95
2022-11-01T21:06:20.722Z,17.91
2022-11-01T21:08:54.016Z,17.92
2022-11-01T21:11:44.083Z,17.85
2022-11-01T21:14:21.480Z,17.85
2022-11-01T21:16:52.969Z,17.85
2022-11-01T21:19:24.672Z,17.85
2022-11-01T21:21:55.966Z,17.84
2022-11-01T21:24:33.994Z,17.81
2022-11-01T21:27:31.674Z,17.79
2022-11-01T21:30:19.124Z,17.77
2022-11-01T21:32:49.644Z,17.75
2022-11-01T21:35:41.344Z,17.74
2022-11-01T21:38:34.561Z,17.75
2022-11-01T21:41:14.195Z,17.72
2022-11-01T21:43:46.684Z,17.69
2022-11-01T21:46:23.850Z,17.66
2022-11-01T21:49:00.085Z,17.66
2022-11-01T21:51:32.518Z,17.67
2022-11-01T21:54:04.458Z,17.66
2022-11-01T21:56:34.659Z,17.65
2022-11-01T21:59:04.399Z,17.64
2022-11-01T22:01:36.911Z,17.61
2022-11-01T22:04:07.044Z,17.62
2022-11-01T22:06:36.816Z,17.59
2022-11-01T22:09:07.878Z,17.57
2022-11-01T22:11:38.011Z,17.55
2022-11-01T22:14:08.342Z,17.55
2022-11-01T22:16:41.403Z,17.50
2022-11-01T22:19:11.278Z,17.45
2022-11-01T22:21:41.431Z,17.38
2022-11-01T22:24:11.405Z,17.36
2022-11-01T22:26:41.209Z,17.34
2022-11-01T22:29:10.979Z,17.32
2022-11-01T22:31:43.444Z,17.28
2022-11-01T22:34:13.355Z,17.28
2022-11-01T22:36:44.899Z,17.19
2022-11-01T22:39:19.334Z,17.17
2022-11-01T22:41:49.163Z,17.17
2022-11-01T22:44:20.949Z,17.15
2022-11-01T22:46:58.951Z,17.17
2022-11-01T22:49:31.404Z,17.18
2022-11-01T22:52:05.256Z,17.15
2022-11-01T22:54:41.376Z,17.14
2022-11-01T22:57:18.244Z,17.12
2022-11-01T22:59:49.525Z,17.10
2022-11-01T23:02:33.678Z,17.09
2022-11-01T23:05:23.171Z,17.11
2022-11-01T23:07:55.178Z,17.10
2022-11-01T23:10:27.893Z,17.10
2022-11-01T23:13:14.443Z,17.10
2022-11-01T23:15:44.391Z,17.09
2022-11-01T23:18:27.884Z,17.07
2022-11-01T23:21:00.091Z,17.05
2022-11-01T23:23:29.945Z,17.04
2022-11-01T23:26:03.462Z,17.01
2022-11-01T23:28:35.553Z,17.01
2022-11-01T23:31:07.034Z,17.00
2022-11-01T23:33:43.267Z,16.97
2022-11-01T23:36:20.737Z,16.94
2022-11-01T23:38:52.768Z,16.92
2022-11-01T23:41:25.428Z,16.86
2022-11-01T23:43:59.258Z,16.81
2022-11-01T23:46:30.133Z,16.77
2022-11-01T23:49:12.605Z,16.74
2022-11-01T23:51:42.447Z,16.75
2022-11-01T23:54:16.567Z,16.73
2022-11-01T23:56:46.932Z,16.75
2022-11-01T23:59:19.058Z,16.68
